Estación de Longaví Norte

Ultimos registro cada 15 minutos 26
Estación Fecha / Hora Temperatura Humedad Lluvia Velocidad Dirección Radiación Presion
26 Longaví Norte 08-05-2026 06:15 6,3 99,9 0 0 201 0,6 1003,6
25 Longaví Norte 08-05-2026 06:00 6,4 99,8 0 0 201 0,6 1003,6
24 Longaví Norte 08-05-2026 05:45 6,4 99,8 0 0 201 0,6 1003,9
23 Longaví Norte 08-05-2026 05:30 6,4 99,6 0 0 201 0,6 1004
22 Longaví Norte 08-05-2026 05:15 6,5 99,7 0 0 201 0,6 1004,2
21 Longaví Norte 08-05-2026 05:00 6,5 99,7 0 0 201 0,6 1004,2
20 Longaví Norte 08-05-2026 04:45 6,5 99,6 0 0 201 0,6 1004,2
19 Longaví Norte 08-05-2026 04:30 6,4 99,6 0 0 201 0,6 1004,2
18 Longaví Norte 08-05-2026 04:15 6,1 99,6 0 0 201 0,6 1004,4
17 Longaví Norte 08-05-2026 04:00 5,9 99,5 0 0 201 0,6 1004,2
16 Longaví Norte 08-05-2026 03:45 5,5 99,6 0 0 201 0,6 1004,1
15 Longaví Norte 08-05-2026 03:30 5,4 99,6 0 0 201 0,6 1004,2
14 Longaví Norte 08-05-2026 03:15 4,9 99,4 0 0 201 0,6 1004,3
13 Longaví Norte 08-05-2026 03:00 4,8 99,1 0 0 201 0,6 1004,5
12 Longaví Norte 08-05-2026 02:45 5,1 99,1 0 0 201 0,6 1005,1
11 Longaví Norte 08-05-2026 02:30 5 99,2 0 0 201 0,6 1005,6
10 Longaví Norte 08-05-2026 02:15 4,7 99 0 0 201 0,6 1005,6
9 Longaví Norte 08-05-2026 02:00 4,8 98,9 0 0 201 0,6 1005,6
8 Longaví Norte 08-05-2026 01:45 5,1 99 0 0 201 0,6 1006
7 Longaví Norte 08-05-2026 01:30 5,2 98,8 0 0 201 0,6 1005,9
6 Longaví Norte 08-05-2026 01:15 5,2 98,5 0 0 201 0,6 1006
5 Longaví Norte 08-05-2026 01:00 5,4 98,3 0 0 201 0,6 1006,2
4 Longaví Norte 08-05-2026 00:45 5,6 98,2 0 0 201 0,6 1006,2
3 Longaví Norte 08-05-2026 00:30 5,5 98 0 0 201 0,6 1006,3
2 Longaví Norte 08-05-2026 00:15 5,5 97,8 0 0 201 0,6 1006,5
1 Longaví Norte 08-05-2026 00:00 5,3 97,7 0 0 201 0,6 1006,7